sensor_id;sensor_type;location;lat;lon;timestamp;pressure;altitude;pressure_sealevel;temperature;humidity
78144;BME280;67394;52.522;13.622;2024-01-30T00:01:14;102353.97;;;-0.20;100.00
78144;BME280;67394;52.522;13.622;2024-01-30T00:03:40;102353.22;;;-0.19;100.00
78144;BME280;67394;52.522;13.622;2024-01-30T00:06:08;102357.19;;;-0.22;100.00
78144;BME280;67394;52.522;13.622;2024-01-30T00:08:36;102349.53;;;-0.24;100.00
78144;BME280;67394;52.522;13.622;2024-01-30T00:11:03;102359.47;;;-0.25;100.00
78144;BME280;67394;52.522;13.622;2024-01-30T00:13:30;102357.72;;;-0.26;100.00
78144;BME280;67394;52.522;13.622;2024-01-30T00:15:56;102355.66;;;-0.32;100.00
78144;BME280;67394;52.522;13.622;2024-01-30T00:18:23;102357.84;;;-0.37;100.00
78144;BME280;67394;52.522;13.622;2024-01-30T00:20:49;102361.88;;;-0.39;100.00
78144;BME280;67394;52.522;13.622;2024-01-30T00:23:16;102366.06;;;-0.39;100.00
78144;BME280;67394;52.522;13.622;2024-01-30T00:25:42;102362.53;;;-0.41;100.00
78144;BME280;67394;52.522;13.622;2024-01-30T00:28:09;102366.63;;;-0.43;100.00
78144;BME280;67394;52.522;13.622;2024-01-30T00:30:36;102362.22;;;-0.46;100.00
78144;BME280;67394;52.522;13.622;2024-01-30T00:33:02;102368.03;;;-0.47;100.00
78144;BME280;67394;52.522;13.622;2024-01-30T00:35:29;102361.25;;;-0.48;100.00
78144;BME280;67394;52.522;13.622;2024-01-30T00:37:56;102363.66;;;-0.49;100.00
78144;BME280;67394;52.522;13.622;2024-01-30T00:40:22;102364.41;;;-0.50;100.00
78144;BME280;67394;52.522;13.622;2024-01-30T00:42:49;102360.13;;;-0.51;100.00
78144;BME280;67394;52.522;13.622;2024-01-30T00:45:16;102357.44;;;-0.54;100.00
78144;BME280;67394;52.522;13.622;2024-01-30T00:47:44;102352.69;;;-0.61;100.00
78144;BME280;67394;52.522;13.622;2024-01-30T00:50:11;102357.72;;;-0.61;100.00
78144;BME280;67394;52.522;13.622;2024-01-30T00:52:37;102358.59;;;-0.61;100.00
78144;BME280;67394;52.522;13.622;2024-01-30T00:55:04;102361.78;;;-0.63;100.00
78144;BME280;67394;52.522;13.622;2024-01-30T00:57:31;102368.03;;;-0.70;100.00
78144;BME280;67394;52.522;13.622;2024-01-30T00:59:58;102361.22;;;-0.71;100.00
78144;BME280;67394;52.522;13.622;2024-01-30T01:02:24;102355.88;;;-0.76;100.00
78144;BME280;67394;52.522;13.622;2024-01-30T01:04:51;102358.41;;;-0.76;100.00
78144;BME280;67394;52.522;13.622;2024-01-30T01:07:17;102355.88;;;-0.76;100.00
78144;BME280;67394;52.522;13.622;2024-01-30T01:09:44;102356.63;;;-0.77;100.00
78144;BME280;67394;52.522;13.622;2024-01-30T01:12:10;102357.63;;;-0.75;100.00
78144;BME280;67394;52.522;13.622;2024-01-30T01:14:37;102359.69;;;-0.81;100.00
78144;BME280;67394;52.522;13.622;2024-01-30T01:17:03;102360.56;;;-0.80;100.00
78144;BME280;67394;52.522;13.622;2024-01-30T01:19:30;102354.78;;;-0.79;100.00
78144;BME280;67394;52.522;13.622;2024-01-30T01:21:57;102355.31;;;-0.83;100.00
78144;BME280;67394;52.522;13.622;2024-01-30T01:24:23;102346.56;;;-0.88;100.00
78144;BME280;67394;52.522;13.622;2024-01-30T01:26:50;102357.50;;;-0.88;100.00
78144;BME280;67394;52.522;13.622;2024-01-30T01:29:17;102355.88;;;-0.87;100.00
78144;BME280;67394;52.522;13.622;2024-01-30T01:31:44;102347.97;;;-0.92;100.00
78144;BME280;67394;52.522;13.622;2024-01-30T01:34:10;102350.59;;;-0.90;100.00
78144;BME280;67394;52.522;13.622;2024-01-30T01:36:38;102352.22;;;-0.91;100.00
78144;BME280;67394;52.522;13.622;2024-01-30T01:39:05;102348.09;;;-0.90;100.00
78144;BME280;67394;52.522;13.622;2024-01-30T01:41:32;102339.66;;;-0.91;100.00
78144;BME280;67394;52.522;13.622;2024-01-30T01:43:59;102340.41;;;-0.92;100.00
78144;BME280;67394;52.522;13.622;2024-01-30T01:46:27;102347.31;;;-0.89;100.00
78144;BME280;67394;52.522;13.622;2024-01-30T01:48:55;102344.03;;;-0.88;100.00
78144;BME280;67394;52.522;13.622;2024-01-30T01:51:23;102340.66;;;-0.89;100.00
78144;BME280;67394;52.522;13.622;2024-01-30T01:53:51;102334.38;;;-0.94;100.00
78144;BME280;67394;52.522;13.622;2024-01-30T01:56:18;102336.16;;;-0.93;100.00
78144;BME280;67394;52.522;13.622;2024-01-30T01:58:45;102339.78;;;-0.89;100.00
78144;BME280;67394;52.522;13.622;2024-01-30T02:01:13;102348.72;;;-0.93;100.00
78144;BME280;67394;52.522;13.622;2024-01-30T02:03:41;102340.63;;;-1.00;100.00
78144;BME280;67394;52.522;13.622;2024-01-30T02:06:08;102344.03;;;-1.00;100.00
78144;BME280;67394;52.522;13.622;2024-01-30T02:08:37;102341.28;;;-1.03;100.00
78144;BME280;67394;52.522;13.622;2024-01-30T02:11:03;102346.09;;;-1.06;100.00
78144;BME280;67394;52.522;13.622;2024-01-30T02:13:30;102348.63;;;-1.06;100.00
78144;BME280;67394;52.522;13.622;2024-01-30T02:15:57;102342.59;;;-1.08;100.00
78144;BME280;67394;52.522;13.622;2024-01-30T02:18:23;102340.28;;;-1.05;100.00
78144;BME280;67394;52.522;13.622;2024-01-30T02:20:53;102348.63;;;-1.06;100.00
78144;BME280;67394;52.522;13.622;2024-01-30T02:23:23;102343.78;;;-1.03;100.00
78144;BME280;67394;52.522;13.622;2024-01-30T02:25:50;102347.75;;;-1.06;100.00
78144;BME280;67394;52.522;13.622;2024-01-30T02:28:17;102341.84;;;-1.07;100.00
78144;BME280;67394;52.522;13.622;2024-01-30T02:30:44;102348.38;;;-1.09;100.00
78144;BME280;67394;52.522;13.622;2024-01-30T02:33:10;102340.84;;;-1.09;100.00
78144;BME280;67394;52.522;13.622;2024-01-30T02:35:37;102334.06;;;-1.10;100.00
78144;BME280;67394;52.522;13.622;2024-01-30T02:38:04;102330.41;;;-1.14;100.00
78144;BME280;67394;52.522;13.622;2024-01-30T02:40:31;102338.63;;;-1.16;100.00
78144;BME280;67394;52.522;13.622;2024-01-30T02:42:59;102335.34;;;-1.15;100.00
78144;BME280;67394;52.522;13.622;2024-01-30T02:45:26;102334.25;;;-1.19;100.00
78144;BME280;67394;52.522;13.622;2024-01-30T02:47:52;102336.88;;;-1.17;100.00
78144;BME280;67394;52.522;13.622;2024-01-30T02:50:19;102341.03;;;-1.18;100.00
78144;BME280;67394;52.522;13.622;2024-01-30T02:52:46;102331.75;;;-1.19;100.00
78144;BME280;67394;52.522;13.622;2024-01-30T02:55:12;102336.53;;;-1.22;100.00
78144;BME280;67394;52.522;13.622;2024-01-30T02:57:39;102332.91;;;-1.25;100.00
78144;BME280;67394;52.522;13.622;2024-01-30T03:00:06;102325.25;;;-1.27;100.00
78144;BME280;67394;52.522;13.622;2024-01-30T03:02:33;102322.84;;;-1.25;100.00
78144;BME280;67394;52.522;13.622;2024-01-30T03:05:00;102331.06;;;-1.16;100.00
78144;BME280;67394;52.522;13.622;2024-01-30T03:07:27;102325.19;;;-1.17;100.00
78144;BME280;67394;52.522;13.622;2024-01-30T03:09:54;102326.03;;;-1.16;100.00
78144;BME280;67394;52.522;13.622;2024-01-30T03:12:21;102320.25;;;-1.15;100.00
78144;BME280;67394;52.522;13.622;2024-01-30T03:14:48;102318.50;;;-1.16;100.00
78144;BME280;67394;52.522;13.622;2024-01-30T03:17:15;102316.22;;;-1.13;100.00
78144;BME280;67394;52.522;13.622;2024-01-30T03:19:42;102315.44;;;-1.12;100.00
78144;BME280;67394;52.522;13.622;2024-01-30T03:22:09;102316.44;;;-1.10;100.00
78144;BME280;67394;52.522;13.622;2024-01-30T03:24:35;102311.41;;;-1.10;100.00
78144;BME280;67394;52.522;13.622;2024-01-30T03:27:02;102306.03;;;-1.15;100.00
78144;BME280;67394;52.522;13.622;2024-01-30T03:29:28;102305.28;;;-1.14;100.00
78144;BME280;67394;52.522;13.622;2024-01-30T03:31:55;102310.31;;;-1.14;100.00
78144;BME280;67394;52.522;13.622;2024-01-30T03:34:21;102307.13;;;-1.11;100.00
78144;BME280;67394;52.522;13.622;2024-01-30T03:36:48;102310.41;;;-1.12;100.00
78144;BME280;67394;52.522;13.622;2024-01-30T03:39:15;102308.78;;;-1.12;100.00
78144;BME280;67394;52.522;13.622;2024-01-30T03:41:42;102312.16;;;-1.11;100.00
78144;BME280;67394;52.522;13.622;2024-01-30T03:44:09;102312.41;;;-1.08;100.00
78144;BME280;67394;52.522;13.622;2024-01-30T03:46:35;102315.91;;;-1.06;100.00
78144;BME280;67394;52.522;13.622;2024-01-30T03:49:02;102312.84;;;-1.02;100.00
78144;BME280;67394;52.522;13.622;2024-01-30T03:51:29;102321.91;;;-1.04;100.00
78144;BME280;67394;52.522;13.622;2024-01-30T03:53:55;102314.16;;;-1.07;100.00
78144;BME280;67394;52.522;13.622;2024-01-30T03:56:22;102310.66;;;-1.09;100.00
78144;BME280;67394;52.522;13.622;2024-01-30T03:58:48;102306.91;;;-1.14;100.00
78144;BME280;67394;52.522;13.622;2024-01-30T04:01:15;102306.03;;;-1.15;100.00
78144;BME280;67394;52.522;13.622;2024-01-30T04:03:42;102305.81;;;-1.18;100.00
78144;BME280;67394;52.522;13.622;2024-01-30T04:06:09;102305.81;;;-1.18;100.00
78144;BME280;67394;52.522;13.622;2024-01-30T04:08:37;102307.78;;;-1.14;100.00
78144;BME280;67394;52.522;13.622;2024-01-30T04:11:04;102305.91;;;-1.16;100.00
78144;BME280;67394;52.522;13.622;2024-01-30T04:13:32;102303.63;;;-1.13;100.00
78144;BME280;67394;52.522;13.622;2024-01-30T04:16:02;102301.13;;;-1.13;100.00
78144;BME280;67394;52.522;13.622;2024-01-30T04:18:29;102309.97;;;-1.18;100.00
78144;BME280;67394;52.522;13.622;2024-01-30T04:20:56;102315.00;;;-1.18;100.00
78144;BME280;67394;52.522;13.622;2024-01-30T04:23:23;102314.78;;;-1.21;100.00
78144;BME280;67394;52.522;13.622;2024-01-30T04:25:49;102314.91;;;-1.20;100.00
78144;BME280;67394;52.522;13.622;2024-01-30T04:28:16;102321.00;;;-1.16;100.00
78144;BME280;67394;52.522;13.622;2024-01-30T04:30:42;102315.00;;;-1.18;100.00
78144;BME280;67394;52.522;13.622;2024-01-30T04:33:10;102320.91;;;-1.18;100.00
78144;BME280;67394;52.522;13.622;2024-01-30T04:35:37;102313.03;;;-1.22;100.00
78144;BME280;67394;52.522;13.622;2024-01-30T04:38:03;102313.03;;;-1.22;100.00
78144;BME280;67394;52.522;13.622;2024-01-30T04:40:30;102311.91;;;-1.26;100.00
78144;BME280;67394;52.522;13.622;2024-01-30T04:42:57;102310.06;;;-1.28;100.00
78144;BME280;67394;52.522;13.622;2024-01-30T04:45:23;102298.25;;;-1.29;100.00
78144;BME280;67394;52.522;13.622;2024-01-30T04:47:50;102302.28;;;-1.31;100.00
78144;BME280;67394;52.522;13.622;2024-01-30T04:50:16;102300.78;;;-1.29;100.00
78144;BME280;67394;52.522;13.622;2024-01-30T04:52:43;102297.38;;;-1.30;100.00
78144;BME280;67394;52.522;13.622;2024-01-30T04:55:09;102300.22;;;-1.25;100.00
78144;BME280;67394;52.522;13.622;2024-01-30T04:57:36;102295.94;;;-1.26;100.00
78144;BME280;67394;52.522;13.622;2024-01-30T05:00:03;102302.63;;;-1.27;100.00
78144;BME280;67394;52.522;13.622;2024-01-30T05:02:30;102302.53;;;-1.28;100.00
78144;BME280;67394;52.522;13.622;2024-01-30T05:04:56;102309.06;;;-1.30;100.00
78144;BME280;67394;52.522;13.622;2024-01-30T05:07:24;102305.56;;;-1.32;100.00
78144;BME280;67394;52.522;13.622;2024-01-30T05:09:51;102303.81;;;-1.33;100.00
78144;BME280;67394;52.522;13.622;2024-01-30T05:12:21;102308.19;;;-1.31;100.00
78144;BME280;67394;52.522;13.622;2024-01-30T05:14:48;102304.94;;;-1.30;100.00
78144;BME280;67394;52.522;13.622;2024-01-30T05:17:14;102300.88;;;-1.28;100.00
78144;BME280;67394;52.522;13.622;2024-01-30T05:19:43;102296.19;;;-1.23;100.00
78144;BME280;67394;52.522;13.622;2024-01-30T05:22:09;102300.22;;;-1.25;100.00
78144;BME280;67394;52.522;13.622;2024-01-30T05:24:36;102296.75;;;-1.27;100.00
78144;BME280;67394;52.522;13.622;2024-01-30T05:27:03;102300.97;;;-1.26;100.00
78144;BME280;67394;52.522;13.622;2024-01-30T05:29:29;102301.22;;;-1.23;100.00
78144;BME280;67394;52.522;13.622;2024-01-30T05:31:56;102303.72;;;-1.23;100.00
78144;BME280;67394;52.522;13.622;2024-01-30T05:34:23;102296.94;;;-1.24;100.00
78144;BME280;67394;52.522;13.622;2024-01-30T05:36:49;102294.44;;;-1.24;100.00
78144;BME280;67394;52.522;13.622;2024-01-30T05:39:16;102295.19;;;-1.25;100.00
78144;BME280;67394;52.522;13.622;2024-01-30T05:41:42;102296.81;;;-1.26;100.00
78144;BME280;67394;52.522;13.622;2024-01-30T05:44:09;102294.97;;;-1.28;100.00
78144;BME280;67394;52.522;13.622;2024-01-30T05:46:35;102289.84;;;-1.30;100.00
78144;BME280;67394;52.522;13.622;2024-01-30T05:49:02;102295.63;;;-1.31;100.00
78144;BME280;67394;52.522;13.622;2024-01-30T05:51:29;102303.41;;;-1.28;100.00
78144;BME280;67394;52.522;13.622;2024-01-30T05:53:56;102293.34;;;-1.28;100.00
78144;BME280;67394;52.522;13.622;2024-01-30T05:56:23;102293.44;;;-1.26;100.00
78144;BME280;67394;52.522;13.622;2024-01-30T05:58:49;102288.41;;;-1.26;100.00
78144;BME280;67394;52.522;13.622;2024-01-30T06:01:16;102297.53;;;-1.17;100.00
78144;BME280;67394;52.522;13.622;2024-01-30T06:03:43;102296.41;;;-1.20;100.00
78144;BME280;67394;52.522;13.622;2024-01-30T06:06:10;102296.19;;;-1.23;100.00
78144;BME280;67394;52.522;13.622;2024-01-30T06:08:36;102288.50;;;-1.25;100.00
78144;BME280;67394;52.522;13.622;2024-01-30T06:11:03;102289.41;;;-1.24;100.00
78144;BME280;67394;52.522;13.622;2024-01-30T06:13:30;102301.97;;;-1.24;100.00
78144;BME280;67394;52.522;13.622;2024-01-30T06:15:56;102292.66;;;-1.25;100.00
78144;BME280;67394;52.522;13.622;2024-01-30T06:18:23;102295.06;;;-1.27;100.00
78144;BME280;67394;52.522;13.622;2024-01-30T06:20:50;102290.91;;;-1.26;100.00
78144;BME280;67394;52.522;13.622;2024-01-30T06:23:17;102298.47;;;-1.26;100.00
78144;BME280;67394;52.522;13.622;2024-01-30T06:25:44;102291.59;;;-1.29;100.00
78144;BME280;67394;52.522;13.622;2024-01-30T06:28:11;102293.00;;;-1.32;100.00
78144;BME280;67394;52.522;13.622;2024-01-30T06:30:37;102296.16;;;-1.35;100.00
78144;BME280;67394;52.522;13.622;2024-01-30T06:33:04;102294.75;;;-1.31;100.00
78144;BME280;67394;52.522;13.622;2024-01-30T06:35:31;102292.34;;;-1.30;100.00
78144;BME280;67394;52.522;13.622;2024-01-30T06:37:57;102299.91;;;-1.30;100.00
78144;BME280;67394;52.522;13.622;2024-01-30T06:40:24;102295.75;;;-1.29;100.00
78144;BME280;67394;52.522;13.622;2024-01-30T06:42:51;102287.44;;;-1.28;100.00
78144;BME280;67394;52.522;13.622;2024-01-30T06:45:17;102295.19;;;-1.25;100.00
78144;BME280;67394;52.522;13.622;2024-01-30T06:47:44;102289.41;;;-1.24;100.00
78144;BME280;67394;52.522;13.622;2024-01-30T06:50:11;102292.91;;;-1.22;100.00
78144;BME280;67394;52.522;13.622;2024-01-30T06:52:38;102290.38;;;-1.22;100.00
78144;BME280;67394;52.522;13.622;2024-01-30T06:55:05;102283.59;;;-1.23;100.00
78144;BME280;67394;52.522;13.622;2024-01-30T06:57:32;102290.50;;;-1.21;100.00
78144;BME280;67394;52.522;13.622;2024-01-30T06:59:58;102286.34;;;-1.20;100.00
78144;BME280;67394;52.522;13.622;2024-01-30T07:02:25;102287.34;;;-1.18;100.00
78144;BME280;67394;52.522;13.622;2024-01-30T07:04:52;102295.00;;;-1.17;100.00
78144;BME280;67394;52.522;13.622;2024-01-30T07:07:19;102289.19;;;-1.16;100.00
78144;BME280;67394;52.522;13.622;2024-01-30T07:09:46;102294.31;;;-1.14;100.00
78144;BME280;67394;52.522;13.622;2024-01-30T07:12:12;102288.66;;;-1.12;100.00
78144;BME280;67394;52.522;13.622;2024-01-30T07:14:39;102292.03;;;-1.11;100.00
78144;BME280;67394;52.522;13.622;2024-01-30T07:17:06;102290.53;;;-1.09;100.00
78144;BME280;67394;52.522;13.622;2024-01-30T07:19:32;102289.97;;;-1.05;100.00
78144;BME280;67394;52.522;13.622;2024-01-30T07:21:59;102281.78;;;-1.02;100.00
78144;BME280;67394;52.522;13.622;2024-01-30T07:24:26;102285.50;;;-0.97;100.00
78144;BME280;67394;52.522;13.622;2024-01-30T07:26:52;102286.56;;;-0.94;100.00
78144;BME280;67394;52.522;13.622;2024-01-30T07:29:19;102290.31;;;-0.89;100.00
78144;BME280;67394;52.522;13.622;2024-01-30T07:31:46;102288.13;;;-0.84;100.00
78144;BME280;67394;52.522;13.622;2024-01-30T07:34:12;102279.91;;;-0.82;100.00
78144;BME280;67394;52.522;13.622;2024-01-30T07:36:39;102286.81;;;-0.79;100.00
78144;BME280;67394;52.522;13.622;2024-01-30T07:39:06;102285.72;;;-0.71;100.00
78144;BME280;67394;52.522;13.622;2024-01-30T07:41:33;102286.06;;;-0.66;100.00
78144;BME280;67394;52.522;13.622;2024-01-30T07:43:59;102279.69;;;-0.61;100.00
78144;BME280;67394;52.522;13.622;2024-01-30T07:46:26;102275.88;;;-0.56;100.00
78144;BME280;67394;52.522;13.622;2024-01-30T07:48:53;102273.66;;;-0.52;100.00
78144;BME280;67394;52.522;13.622;2024-01-30T07:51:21;102278.16;;;-0.48;100.00
78144;BME280;67394;52.522;13.622;2024-01-30T07:53:47;102280.19;;;-0.42;100.00
78144;BME280;67394;52.522;13.622;2024-01-30T07:56:14;102280.66;;;-0.36;100.00
78144;BME280;67394;52.522;13.622;2024-01-30T07:58:40;102277.13;;;-0.26;100.00
78144;BME280;67394;52.522;13.622;2024-01-30T08:01:07;102276.66;;;-0.21;100.00
78144;BME280;67394;52.522;13.622;2024-01-30T08:03:34;102274.88;;;-0.10;100.00
78144;BME280;67394;52.522;13.622;2024-01-30T08:06:01;102266.75;;;-0.06;100.00
78144;BME280;67394;52.522;13.622;2024-01-30T08:08:28;102268.03;;;0.00;100.00
78144;BME280;67394;52.522;13.622;2024-01-30T08:10:54;102262.56;;;0.06;100.00
78144;BME280;67394;52.522;13.622;2024-01-30T08:13:21;102263.72;;;0.11;100.00
78144;BME280;67394;52.522;13.622;2024-01-30T08:15:47;102266.78;;;0.19;100.00
78144;BME280;67394;52.522;13.622;2024-01-30T08:18:14;102266.41;;;0.26;100.00
78144;BME280;67394;52.522;13.622;2024-01-30T08:20:41;102266.16;;;0.34;100.00
78144;BME280;67394;52.522;13.622;2024-01-30T08:23:07;102262.09;;;0.36;100.00
78144;BME280;67394;52.522;13.622;2024-01-30T08:25:34;102266.75;;;0.44;100.00
78144;BME280;67394;52.522;13.622;2024-01-30T08:28:01;102270.47;;;0.49;100.00
78144;BME280;67394;52.522;13.622;2024-01-30T08:30:28;102264.28;;;0.57;100.00
78144;BME280;67394;52.522;13.622;2024-01-30T08:32:54;102263.13;;;0.65;100.00
78144;BME280;67394;52.522;13.622;2024-01-30T08:35:21;102268.47;;;0.69;100.00
78144;BME280;67394;52.522;13.622;2024-01-30T08:37:50;102254.41;;;0.73;100.00
78144;BME280;67394;52.522;13.622;2024-01-30T08:40:17;102253.16;;;0.80;100.00
78144;BME280;67394;52.522;13.622;2024-01-30T08:42:44;102246.06;;;0.87;100.00
78144;BME280;67394;52.522;13.622;2024-01-30T08:45:11;102245.00;;;0.97;100.00
78144;BME280;67394;52.522;13.622;2024-01-30T08:47:38;102246.84;;;0.99;100.00
78144;BME280;67394;52.522;13.622;2024-01-30T08:50:05;102254.91;;;1.07;100.00
78144;BME280;67394;52.522;13.622;2024-01-30T08:52:32;102246.97;;;1.14;100.00
78144;BME280;67394;52.522;13.622;2024-01-30T08:55:00;102238.41;;;1.25;100.00
78144;BME280;67394;52.522;13.622;2024-01-30T08:57:27;102248.88;;;1.31;100.00
78144;BME280;67394;52.522;13.622;2024-01-30T08:59:54;102237.44;;;1.36;100.00
78144;BME280;67394;52.522;13.622;2024-01-30T09:02:21;102238.00;;;1.45;100.00
78144;BME280;67394;52.522;13.622;2024-01-30T09:04:47;102244.19;;;1.51;100.00
78144;BME280;67394;52.522;13.622;2024-01-30T09:07:14;102238.25;;;1.63;100.00
78144;BME280;67394;52.522;13.622;2024-01-30T09:09:41;102237.25;;;1.74;100.00
78144;BME280;67394;52.522;13.622;2024-01-30T09:12:08;102242.16;;;1.86;100.00
78144;BME280;67394;52.522;13.622;2024-01-30T09:14:35;102245.34;;;1.97;100.00
78144;BME280;67394;52.522;13.622;2024-01-30T09:17:02;102244.41;;;2.09;100.00
78144;BME280;67394;52.522;13.622;2024-01-30T09:19:28;102252.75;;;2.22;100.00
78144;BME280;67394;52.522;13.622;2024-01-30T09:21:55;102250.91;;;2.34;100.00
78144;BME280;67394;52.522;13.622;2024-01-30T09:24:22;102239.25;;;2.50;100.00
78144;BME280;67394;52.522;13.622;2024-01-30T09:26:48;102241.44;;;2.59;100.00
78144;BME280;67394;52.522;13.622;2024-01-30T09:29:15;102242.56;;;2.64;100.00
78144;BME280;67394;52.522;13.622;2024-01-30T09:31:45;102244.06;;;2.75;100.00
78144;BME280;67394;52.522;13.622;2024-01-30T09:34:12;102242.66;;;2.80;100.00
78144;BME280;67394;52.522;13.622;2024-01-30T09:36:39;102244.03;;;2.90;100.00
78144;BME280;67394;52.522;13.622;2024-01-30T09:39:06;102234.31;;;2.98;100.00
78144;BME280;67394;52.522;13.622;2024-01-30T09:41:33;102235.56;;;3.04;100.00
78144;BME280;67394;52.522;13.622;2024-01-30T09:44:03;102229.25;;;3.12;100.00
78144;BME280;67394;52.522;13.622;2024-01-30T09:46:31;102238.56;;;3.28;100.00
78144;BME280;67394;52.522;13.622;2024-01-30T09:49:00;102236.97;;;3.30;100.00
78144;BME280;67394;52.522;13.622;2024-01-30T09:51:29;102235.78;;;3.40;99.85
78144;BME280;67394;52.522;13.622;2024-01-30T09:53:57;102236.06;;;3.44;99.13
78144;BME280;67394;52.522;13.622;2024-01-30T09:56:23;102233.94;;;3.52;98.35
78144;BME280;67394;52.522;13.622;2024-01-30T09:58:50;102229.19;;;3.58;97.47
78144;BME280;67394;52.522;13.622;2024-01-30T10:01:17;102226.97;;;3.64;96.65
78144;BME280;67394;52.522;13.622;2024-01-30T10:03:45;102232.31;;;3.68;97.29
78144;BME280;67394;52.522;13.622;2024-01-30T10:06:12;102228.66;;;3.80;95.89
78144;BME280;67394;52.522;13.622;2024-01-30T10:08:39;102231.69;;;3.89;95.11
78144;BME280;67394;52.522;13.622;2024-01-30T10:11:06;102231.91;;;3.93;94.02
78144;BME280;67394;52.522;13.622;2024-01-30T10:13:33;102233.09;;;4.00;93.25
78144;BME280;67394;52.522;13.622;2024-01-30T10:16:07;102221.19;;;4.15;91.83
78144;BME280;67394;52.522;13.622;2024-01-30T10:18:34;102215.50;;;4.19;91.48
78144;BME280;67394;52.522;13.622;2024-01-30T10:21:00;102220.84;;;4.25;91.52
78144;BME280;67394;52.522;13.622;2024-01-30T10:23:27;102213.56;;;4.31;90.89
78144;BME280;67394;52.522;13.622;2024-01-30T10:26:00;102204.91;;;4.44;89.39
78144;BME280;67394;52.522;13.622;2024-01-30T10:28:28;102211.38;;;4.55;88.78
78144;BME280;67394;52.522;13.622;2024-01-30T10:30:59;102205.78;;;4.62;86.92
78144;BME280;67394;52.522;13.622;2024-01-30T10:33:31;102202.81;;;4.71;86.67
78144;BME280;67394;52.522;13.622;2024-01-30T10:36:03;102200.56;;;4.77;86.08
78144;BME280;67394;52.522;13.622;2024-01-30T10:38:31;102198.34;;;4.83;86.45
78144;BME280;67394;52.522;13.622;2024-01-30T10:41:02;102196.94;;;4.90;86.12
78144;BME280;67394;52.522;13.622;2024-01-30T10:43:32;102198.13;;;4.96;84.75
78144;BME280;67394;52.522;13.622;2024-01-30T10:46:15;102195.84;;;5.02;85.10
78144;BME280;67394;52.522;13.622;2024-01-30T10:48:51;102195.63;;;5.15;82.19
78144;BME280;67394;52.522;13.622;2024-01-30T10:51:23;102194.25;;;5.22;82.49
78144;BME280;67394;52.522;13.622;2024-01-30T10:53:50;102197.88;;;5.27;82.39
78144;BME280;67394;52.522;13.622;2024-01-30T10:56:20;102192.34;;;5.36;80.50
78144;BME280;67394;52.522;13.622;2024-01-30T10:58:49;102191.00;;;5.44;79.89
78144;BME280;67394;52.522;13.622;2024-01-30T11:01:16;102191.00;;;5.44;80.11
78144;BME280;67394;52.522;13.622;2024-01-30T11:03:43;102183.59;;;5.48;79.71
78144;BME280;67394;52.522;13.622;2024-01-30T11:06:11;102186.63;;;5.59;79.07
78144;BME280;67394;52.522;13.622;2024-01-30T11:08:38;102186.00;;;5.65;77.68
78144;BME280;67394;52.522;13.622;2024-01-30T11:11:08;102188.53;;;5.65;78.07
78144;BME280;67394;52.522;13.622;2024-01-30T11:13:35;102186.41;;;5.74;77.98
78144;BME280;67394;52.522;13.622;2024-01-30T11:16:06;102182.13;;;5.73;77.16
78144;BME280;67394;52.522;13.622;2024-01-30T11:18:33;102191.50;;;5.74;77.95
78144;BME280;67394;52.522;13.622;2024-01-30T11:21:04;102183.28;;;5.79;76.09
78144;BME280;67394;52.522;13.622;2024-01-30T11:23:34;102185.28;;;5.86;76.39
78144;BME280;67394;52.522;13.622;2024-01-30T11:26:01;102179.31;;;5.86;76.40
78144;BME280;67394;52.522;13.622;2024-01-30T11:28:32;102174.47;;;5.91;75.61
78144;BME280;67394;52.522;13.622;2024-01-30T11:31:03;102170.00;;;6.06;74.94
78144;BME280;67394;52.522;13.622;2024-01-30T11:33:30;102169.03;;;6.02;74.74
78144;BME280;67394;52.522;13.622;2024-01-30T11:36:00;102164.97;;;6.07;73.96
78144;BME280;67394;52.522;13.622;2024-01-30T11:38:27;102169.34;;;6.10;73.73
78144;BME280;67394;52.522;13.622;2024-01-30T11:40:55;102172.34;;;6.20;72.76
78144;BME280;67394;52.522;13.622;2024-01-30T11:43:22;102163.97;;;6.23;73.34
78144;BME280;67394;52.522;13.622;2024-01-30T11:45:49;102169.13;;;6.24;73.04
78144;BME280;67394;52.522;13.622;2024-01-30T11:48:16;102170.16;;;6.30;71.77
78144;BME280;67394;52.522;13.622;2024-01-30T11:50:44;102158.38;;;6.32;72.36
78144;BME280;67394;52.522;13.622;2024-01-30T11:53:11;102167.81;;;6.34;73.15
78144;BME280;67394;52.522;13.622;2024-01-30T11:55:37;102156.34;;;6.44;72.36
78144;BME280;67394;52.522;13.622;2024-01-30T11:58:04;102168.31;;;6.46;72.91
78144;BME280;67394;52.522;13.622;2024-01-30T12:00:31;102161.84;;;6.54;72.36
78144;BME280;67394;52.522;13.622;2024-01-30T12:02:58;102166.25;;;6.58;72.43
78144;BME280;67394;52.522;13.622;2024-01-30T12:05:26;102158.16;;;6.69;72.18
78144;BME280;67394;52.522;13.622;2024-01-30T12:07:53;102158.38;;;6.73;71.44
78144;BME280;67394;52.522;13.622;2024-01-30T12:10:21;102151.81;;;6.80;71.33
78144;BME280;67394;52.522;13.622;2024-01-30T12:12:51;102155.44;;;6.85;71.46
78144;BME280;67394;52.522;13.622;2024-01-30T12:15:19;102153.22;;;6.94;70.93
78144;BME280;67394;52.522;13.622;2024-01-30T12:17:47;102143.25;;;7.00;70.23
78144;BME280;67394;52.522;13.622;2024-01-30T12:20:15;102151.16;;;7.06;71.28
78144;BME280;67394;52.522;13.622;2024-01-30T12:22:45;102146.34;;;7.14;70.92
78144;BME280;67394;52.522;13.622;2024-01-30T12:25:13;102145.00;;;7.23;68.88
78144;BME280;67394;52.522;13.622;2024-01-30T12:27:43;102143.38;;;7.25;69.97
78144;BME280;67394;52.522;13.622;2024-01-30T12:30:12;102141.63;;;7.24;70.33
78144;BME280;67394;52.522;13.622;2024-01-30T12:32:40;102147.88;;;7.32;69.44
78144;BME280;67394;52.522;13.622;2024-01-30T12:35:11;102138.41;;;7.28;70.38